Time;durP1;ratioP1;P1;durP2;ratioP2;P2;SDS_P1;SDS_P2;PMS_P1;PMS_P2;Temp;Humidity;BMP_temperature;BMP_pressure;BME280_temperature;BME280_humidity;BME280_pressure;Samples;Min_cycle;Max_cycle;Signal;HPM_P1;HPM_P2
2023/12/26 00:01:07;;;;;;;41.65;9.43;;;12.10;99.90;;;12.31;100.00;100416.72;4897492;29;20056;-68
2023/12/26 00:03:36;;;;;;;28.92;7.47;;;12.10;99.90;;;12.38;100.00;100413.03;4897448;29;20052;-68
2023/12/26 00:06:07;;;;;;;38.88;8.52;;;12.20;99.90;;;12.35;100.00;100407.81;4897458;29;20131;-68
2023/12/26 00:08:35;;;;;;;;;;;12.10;99.90;;;12.37;100.00;100412.16;4897889;29;20052;-68
2023/12/26 00:11:04;;;;;;;33.97;7.93;;;12.10;99.90;;;12.39;100.00;100407.72;4897417;29;20293;-68
2023/12/26 00:13:32;;;;;;;34.92;8.60;;;12.20;99.90;;;12.46;100.00;100408.47;4897372;29;20549;-67
2023/12/26 00:16:01;;;;;;;37.30;7.82;;;12.20;99.90;;;12.47;100.00;100407.56;4911953;29;20475;-68
2023/12/26 00:18:29;;;;;;;37.08;8.00;;;12.30;99.90;;;12.45;100.00;100409.34;4897383;29;20045;-68
2023/12/26 00:20:58;;;;;;;38.25;7.80;;;12.20;99.90;;;12.48;100.00;100414.63;4897279;29;20384;-67
2023/12/26 00:23:28;;;;;;;38.50;9.18;;;12.30;99.90;;;12.50;100.00;100410.16;4897392;29;20048;-67
2023/12/26 00:25:58;;;;;;;38.88;8.70;;;12.30;99.90;;;12.43;100.00;100406.75;4900446;29;20055;-68
2023/12/26 00:28:26;;;;;;;37.20;8.77;;;12.20;99.90;;;12.50;100.00;100407.50;4900976;29;20087;-68
2023/12/26 00:30:54;;;;;;;40.90;8.68;;;12.30;99.90;;;12.41;100.00;100399.72;4900971;29;20075;-67
2023/12/26 00:33:23;;;;;;;45.95;9.15;;;12.20;99.90;;;12.55;100.00;100413.59;4915294;29;20068;-67
2023/12/26 00:35:54;;;;;;;30.65;7.78;;;12.30;99.90;;;12.46;100.00;100396.09;4901061;29;20059;-68
2023/12/26 00:38:23;;;;;;;33.65;8.32;;;12.30;99.90;;;12.54;100.00;100419.81;4901142;29;20574;-67
2023/12/26 00:40:52;;;;;;;36.88;8.52;;;12.30;99.90;;;12.53;100.00;100410.09;4900842;29;20045;-67
2023/12/26 00:43:21;;;;;;;45.47;9.52;;;12.30;99.90;;;12.48;100.00;100406.66;4900703;29;20131;-67
2023/12/26 00:45:49;;;;;;;43.85;8.80;;;12.30;99.90;;;12.52;100.00;100411.00;4900739;29;20107;-67
2023/12/26 00:48:18;;;;;;;33.88;7.95;;;12.30;99.90;;;12.54;100.00;100409.19;4900620;29;20072;-68
2023/12/26 00:50:46;;;;;;;38.92;8.60;;;12.30;99.90;;;12.61;100.00;100413.47;4900701;29;20045;-67
2023/12/26 00:53:15;;;;;;;38.33;8.05;;;12.40;99.90;;;12.54;100.00;100414.50;4900808;29;20104;-67
2023/12/26 00:55:43;;;;;;;40.05;9.80;;;12.30;99.90;;;12.61;100.00;100424.09;4900479;29;20052;-68
2023/12/26 00:58:13;;;;;;;37.47;8.63;;;12.40;99.90;;;12.70;100.00;100416.81;4900594;29;20403;-67
2023/12/26 01:00:42;;;;;;;40.03;8.63;;;12.40;99.90;;;12.75;100.00;100427.34;4900395;29;20060;-68
2023/12/26 01:03:10;;;;;;;46.28;9.23;;;12.50;99.90;;;12.78;100.00;100432.56;4900519;29;20111;-67
2023/12/26 01:05:39;;;;;;;38.40;9.20;;;12.50;99.90;;;12.78;100.00;100442.31;4900333;29;20107;-67
2023/12/26 01:08:09;;;;;;;47.35;9.02;;;12.50;99.90;;;12.83;100.00;100440.44;4900451;29;20562;-68
2023/12/26 01:10:37;;;;;;;48.47;8.63;;;12.60;99.90;;;12.94;100.00;100434.00;4914839;29;20487;-67
2023/12/26 01:13:06;;;;;;;34.20;7.78;;;12.70;99.90;;;12.82;100.00;100431.59;4914739;29;20053;-67
2023/12/26 01:15:36;;;;;;;40.70;8.90;;;12.60;99.90;;;12.78;100.00;100437.00;4900401;29;20044;-69
2023/12/26 01:18:05;;;;;;;41.28;8.20;;;12.60;99.90;;;12.81;100.00;100472.34;4900251;29;20135;-68
2023/12/26 01:20:34;;;;;;;43.40;9.10;;;12.60;99.90;;;12.81;100.00;100443.16;4898891;29;20395;-68
2023/12/26 01:23:03;;;;;;;41.00;8.50;;;12.60;99.90;;;12.81;100.00;100448.44;4899958;29;20164;-67
2023/12/26 01:25:31;;;;;;;35.15;8.32;;;12.60;99.90;;;12.70;100.00;100448.66;4930299;29;20049;-68
2023/12/26 01:28:00;;;;;;;33.17;7.53;;;12.50;99.90;;;12.78;100.00;100447.63;4900374;29;20040;-68
2023/12/26 01:30:29;;;;;;;28.35;7.50;;;12.50;99.90;;;12.75;100.00;100451.22;4900315;29;20048;-68
2023/12/26 01:32:59;;;;;;;36.03;7.82;;;12.50;99.90;;;12.73;100.00;100466.31;4900128;29;20131;-68
2023/12/26 01:35:28;;;;;;;36.92;7.45;;;12.50;99.90;;;12.73;100.00;100461.00;4914123;29;20049;-68
2023/12/26 01:37:57;;;;;;;34.55;6.97;;;12.50;99.90;;;12.74;100.00;100478.66;4913424;29;20049;-68
2023/12/26 01:40:26;;;;;;;31.23;6.45;;;12.50;99.90;;;12.63;100.00;100459.41;4898337;29;20060;-68
2023/12/26 01:42:54;;;;;;;31.98;7.15;;;12.50;99.90;;;12.70;100.00;100466.34;4898285;29;20057;-68
2023/12/26 01:45:23;;;;;;;22.30;6.45;;;12.50;99.90;;;12.78;100.00;100472.38;4899956;29;20068;-69
2023/12/26 01:47:57;;;;;;;21.50;5.80;;;12.50;99.90;;;12.78;100.00;100477.69;4899722;29;20080;-68
2023/12/26 01:50:28;;;;;;;24.30;5.85;;;12.60;99.90;;;12.81;100.00;100493.56;4898371;29;20048;-68
2023/12/26 01:52:57;;;;;;;21.77;5.88;;;12.50;99.90;;;12.74;100.00;100494.56;4899488;29;20053;-68
2023/12/26 01:55:25;;;;;;;17.10;5.63;;;12.50;99.90;;;12.79;100.00;100511.31;4899610;29;20057;-69
2023/12/26 01:57:55;;;;;;;19.75;5.93;;;12.60;99.90;;;12.71;100.00;100502.59;4914209;29;20545;-68
2023/12/26 02:00:23;;;;;;;17.20;5.22;;;12.50;99.90;;;12.75;100.00;100498.09;4899469;29;20295;-68
2023/12/26 02:02:53;;;;;;;17.30;5.78;;;12.50;99.90;;;12.75;100.00;100501.66;4899684;29;20051;-68
2023/12/26 02:05:22;;;;;;;19.35;5.10;;;12.60;99.90;;;12.82;100.00;100511.22;4913650;29;20063;-68
2023/12/26 02:07:53;;;;;;;16.88;5.20;;;12.60;99.90;;;12.77;100.00;100497.19;4899669;29;20044;-68
2023/12/26 02:10:21;;;;;;;12.65;4.85;;;12.60;99.90;;;12.72;100.00;100506.16;4929909;29;20402;-68
2023/12/26 02:12:50;;;;;;;20.60;5.50;;;12.60;99.90;;;12.62;100.00;100489.50;4899123;29;20481;-68
2023/12/26 02:15:18;;;;;;;19.35;5.70;;;12.50;99.90;;;12.79;100.00;100521.03;4929327;29;20112;-68
2023/12/26 02:17:48;;;;;;;20.98;5.65;;;12.60;99.90;;;12.72;100.00;100524.72;4899241;29;20064;-68
2023/12/26 02:20:18;;;;;;;17.50;5.25;;;12.60;99.90;;;12.72;100.00;100522.91;4899286;29;20128;-68
2023/12/26 02:22:46;;;;;;;17.20;5.47;;;12.50;99.90;;;12.75;100.00;100530.84;4913463;29;20502;-68
2023/12/26 02:25:17;;;;;;;20.70;5.32;;;12.50;99.90;;;12.74;100.00;100531.72;4899120;29;20052;-68
2023/12/26 02:27:46;;;;;;;22.15;5.95;;;12.50;99.90;;;12.75;100.00;100529.97;4929229;29;20060;-68
2023/12/26 02:30:16;;;;;;;16.98;5.63;;;12.50;99.90;;;12.80;100.00;100544.00;4929289;29;20056;-68
2023/12/26 02:32:46;;;;;;;14.53;5.20;;;12.60;99.90;;;12.73;100.00;100547.69;4929322;29;20060;-68
2023/12/26 02:35:15;;;;;;;17.35;6.18;;;12.50;99.90;;;12.74;100.00;100550.31;4899007;29;20073;-67
2023/12/26 02:37:44;;;;;;;15.13;5.20;;;12.50;99.90;;;12.68;100.00;100561.03;4898797;29;20091;-68
2023/12/26 02:40:13;;;;;;;17.90;5.25;;;12.50;99.90;;;12.64;100.00;100548.72;4898681;29;20056;-68
2023/12/26 02:42:43;;;;;;;15.77;5.43;;;12.50;99.90;;;12.66;100.00;100569.03;4898552;29;20048;-68
2023/12/26 02:45:12;;;;;;;14.98;5.43;;;12.40;99.90;;;12.55;100.00;100560.38;4898688;29;20502;-68
2023/12/26 02:47:41;;;;;;;19.38;5.20;;;12.40;99.90;;;12.61;100.00;100562.06;4898403;29;20044;-68
2023/12/26 02:50:10;;;;;;;18.83;5.03;;;12.40;99.90;;;12.56;100.00;100578.03;4898541;29;20045;-68
2023/12/26 02:52:39;;;;;;;24.08;5.72;;;12.40;99.90;;;12.64;100.00;100578.78;4898602;29;20103;-69
2023/12/26 02:55:08;;;;;;;16.10;5.10;;;12.40;99.90;;;12.63;100.00;100576.16;4928942;29;20112;-68
2023/12/26 02:57:37;;;;;;;17.33;5.22;;;12.40;99.90;;;12.60;100.00;100578.88;4928835;29;20293;-68
2023/12/26 03:00:08;;;;;;;17.52;5.28;;;12.40;99.90;;;12.55;100.00;100570.13;4898315;29;20044;-68
2023/12/26 03:02:37;;;;;;;18.10;4.88;;;12.40;99.90;;;12.59;100.00;100598.34;4898423;29;20151;-68
2023/12/26 03:05:07;;;;;;;15.77;5.82;;;12.40;99.90;;;12.47;100.00;100583.50;4912749;29;20100;-68
2023/12/26 03:07:35;;;;;;;13.13;4.82;;;12.30;99.90;;;12.48;100.00;100600.31;4898255;29;20052;-68
2023/12/26 03:10:08;;;;;;;15.23;5.28;;;12.30;99.90;;;12.44;100.00;100599.50;4912579;29;20582;-69
2023/12/26 03:12:37;;;;;;;22.58;5.75;;;12.30;99.90;;;12.32;100.00;100604.09;4898440;29;20494;-68
2023/12/26 03:15:09;;;;;;;22.60;5.55;;;12.20;99.90;;;12.27;100.00;100600.66;4897980;29;20510;-69
2023/12/26 03:17:37;;;;;;;16.60;5.30;;;12.10;99.90;;;12.27;100.00;100605.97;4897917;29;20125;-68
2023/12/26 03:20:07;;;;;;;17.02;5.38;;;12.10;99.90;;;12.22;100.00;100613.09;4898170;29;20052;-68
2023/12/26 03:22:40;;;;;;;10.60;4.90;;;12.10;99.90;;;12.08;100.00;100628.34;4912473;29;20129;-68
2023/12/26 03:25:09;;;;;;;22.35;5.45;;;11.90;99.90;;;12.05;100.00;100613.34;4898168;29;20049;-69
2023/12/26 03:27:37;;;;;;;14.38;5.15;;;11.90;99.90;;;12.03;100.00;100616.91;4897924;29;20040;-68
2023/12/26 03:30:09;;;;;;;16.08;5.38;;;11.80;99.90;;;11.96;98.96;100615.25;4898156;29;20372;-69
2023/12/26 03:32:39;;;;;;;17.45;5.18;;;11.80;99.90;;;11.86;98.32;100625.13;4896607;29;20076;-68
2023/12/26 03:35:10;;;;;;;18.20;5.72;;;11.70;99.90;;;11.98;97.89;100626.72;4897916;29;20052;-69
2023/12/26 03:37:38;;;;;;;;;;;11.80;99.90;;;11.85;95.93;100631.31;4898747;29;20059;-69
2023/12/26 03:40:08;;;;;;;16.40;5.47;;;11.70;99.90;;;11.84;95.15;100626.91;4897861;29;19974;-69
2023/12/26 03:42:37;;;;;;;17.88;4.97;;;11.70;99.90;;;11.78;95.02;100645.53;4928445;29;20067;-70
2023/12/26 03:45:08;;;;;;;14.65;4.85;;;11.60;99.90;;;11.73;94.26;100648.25;4927580;29;20135;-69
2023/12/26 03:47:37;;;;;;;21.90;5.43;;;11.60;99.90;;;11.71;94.19;100646.53;4895884;29;20048;-69
2023/12/26 03:50:07;;;;;;;15.68;5.03;;;11.60;99.90;;;11.63;93.75;100646.56;4910557;29;20112;-69
2023/12/26 03:52:36;;;;;;;15.07;4.55;;;11.50;99.90;;;11.70;93.68;100655.34;4896657;29;20056;-69
2023/12/26 03:55:05;;;;;;;13.35;4.57;;;11.50;99.90;;;11.64;93.69;100661.56;4897581;29;20045;-69
2023/12/26 03:57:34;;;;;;;19.60;4.72;;;11.50;99.90;;;11.73;93.49;100665.91;4897783;29;20076;-69
2023/12/26 04:00:04;;;;;;;17.20;4.80;;;11.60;99.90;;;11.55;93.47;100674.06;4899062;29;20059;-69
2023/12/26 04:02:41;;;;;;;17.48;5.65;;;11.50;99.90;;;11.52;93.00;100650.22;4901540;29;20064;-69
2023/12/26 04:05:13;;;;;;;14.45;5.07;;;11.40;99.90;;;11.54;92.11;100661.69;4900165;29;20060;-68
2023/12/26 04:07:42;;;;;;;20.30;5.40;;;11.40;99.90;;;11.48;90.79;100661.75;4916228;29;20051;-69
2023/12/26 04:10:11;;;;;;;20.48;4.95;;;11.30;99.90;;;11.48;89.99;100659.09;4931930;29;20055;-69
2023/12/26 04:12:40;;;;;;;22.33;6.07;;;11.30;99.90;;;11.43;90.43;100668.88;4916007;29;20123;-69
2023/12/26 04:15:10;;;;;;;18.67;5.88;;;11.30;99.90;;;11.42;89.90;100668.00;4931808;29;20402;-69
2023/12/26 04:17:38;;;;;;;22.40;5.77;;;11.40;99.90;;;11.41;90.10;100683.91;4915838;29;20063;-68
2023/12/26 04:20:10;;;;;;;24.27;5.70;;;11.30;99.90;;;11.31;90.41;100690.19;4915674;29;20323;-69
2023/12/26 04:22:39;;;;;;;17.25;5.13;;;11.20;99.90;;;11.11;90.21;100649.84;4899956;29;20071;-68
2023/12/26 04:25:08;;;;;;;19.98;5.32;;;11.30;99.90;;;11.29;91.02;100707.88;4915581;29;20055;-69
2023/12/26 04:27:37;;;;;;;17.30;4.88;;;11.10;99.90;;;11.23;89.95;100706.16;4899908;29;20536;-69
2023/12/26 04:30:08;;;;;;;17.27;5.18;;;11.10;99.90;;;11.28;89.72;100707.00;4915577;29;20064;-70
2023/12/26 04:32:37;;;;;;;22.55;5.40;;;11.10;99.90;;;11.37;89.87;100719.25;4931453;29;20447;-69
2023/12/26 04:35:06;;;;;;;21.08;5.22;;;11.20;99.90;;;11.40;89.12;100720.09;4915303;29;20155;-69
2023/12/26 04:37:36;;;;;;;12.05;5.07;;;11.30;99.90;;;11.28;88.75;100732.59;4899579;29;20410;-69
2023/12/26 04:40:07;;;;;;;14.85;4.85;;;11.20;99.90;;;11.29;88.52;100743.16;4901113;29;20044;-69
2023/12/26 04:42:35;;;;;;;13.50;5.30;;;11.20;99.90;;;11.23;88.15;100737.94;4901140;29;20116;-69
2023/12/26 04:45:05;;;;;;;21.48;5.07;;;11.10;99.90;;;11.21;87.74;100739.72;4899362;29;20048;-69
2023/12/26 04:47:33;;;;;;;11.80;4.40;;;11.10;99.90;;;11.24;87.62;100734.41;4900738;29;20045;-68
2023/12/26 04:50:02;;;;;;;18.55;5.40;;;11.10;99.90;;;11.28;87.09;100743.19;4900602;29;20451;-69
2023/12/26 04:52:31;;;;;;;15.30;5.00;;;11.10;99.90;;;11.25;86.80;100748.50;4915100;29;20059;-69
2023/12/26 04:55:01;;;;;;;27.02;5.63;;;11.10;99.90;;;11.30;85.73;100747.59;4899449;29;20053;-69
2023/12/26 04:57:30;;;;;;;15.13;4.95;;;11.20;99.90;;;11.19;84.64;100757.38;4900957;29;20423;-69
2023/12/26 04:59:58;;;;;;;20.35;5.28;;;11.10;99.90;;;11.16;84.52;100756.53;4899246;29;20525;-69
2023/12/26 05:02:28;;;;;;;19.90;5.45;;;11.00;99.90;;;11.04;83.88;100752.22;4931048;29;20155;-69
2023/12/26 05:04:56;;;;;;;19.23;5.00;;;11.00;99.90;;;10.99;83.49;100748.75;4915036;29;20049;-69
2023/12/26 05:07:25;;;;;;;15.32;4.80;;;10.90;99.90;;;10.98;83.09;100754.03;4900492;29;20041;-69
2023/12/26 05:09:53;;;;;;;19.70;5.43;;;10.90;99.90;;;11.03;83.49;100755.78;4900384;29;20084;-69
2023/12/26 05:12:23;;;;;;;16.90;5.22;;;10.90;99.90;;;10.86;84.01;100761.19;4898882;29;20048;-69
2023/12/26 05:14:52;;;;;;;18.45;5.57;;;10.80;99.90;;;11.04;83.31;100760.16;4898979;29;20060;-69
2023/12/26 05:17:20;;;;;;;19.98;5.57;;;10.80;99.90;;;11.03;83.60;100771.66;4930373;29;20060;-69
2023/12/26 05:19:50;;;;;;;17.15;5.63;;;10.90;99.90;;;11.07;82.99;100773.34;4914481;29;20553;-69
2023/12/26 05:22:18;;;;;;;19.73;5.18;;;10.90;99.90;;;11.12;82.22;100768.91;4900427;29;20475;-69
2023/12/26 05:24:47;;;;;;;15.90;4.80;;;11.00;99.90;;;11.19;82.28;100772.41;4914460;29;20049;-69
2023/12/26 05:27:23;;;;;;;13.55;5.03;;;11.00;99.90;;;11.08;81.85;100775.13;4914503;29;20049;-69
2023/12/26 05:29:52;;;;;;;15.57;4.83;;;11.00;99.90;;;11.09;82.35;100787.47;4914680;29;20048;-69
2023/12/26 05:32:20;;;;;;;20.27;5.78;;;11.00;99.90;;;11.13;82.46;100798.94;4900169;29;20842;-69
2023/12/26 05:34:49;;;;;;;17.63;5.25;;;11.00;99.90;;;11.13;82.53;100794.50;4899962;29;20534;-68
2023/12/26 05:37:17;;;;;;;18.67;5.20;;;11.00;99.90;;;11.10;82.97;100799.81;4930118;29;20509;-68
2023/12/26 05:39:46;;;;;;;15.35;5.57;;;11.00;99.90;;;11.13;83.45;100801.56;4898460;29;20059;-69
2023/12/26 05:42:14;;;;;;;20.50;5.32;;;10.90;99.90;;;11.21;83.20;100812.94;4899547;29;20517;-69
2023/12/26 05:44:44;;;;;;;20.40;6.05;;;11.00;99.90;;;11.30;83.17;100821.72;4914437;29;20040;-69
2023/12/26 05:47:13;;;;;;;17.33;5.63;;;11.10;99.90;;;11.26;83.55;100822.66;4930028;29;20108;-69
2023/12/26 05:49:42;;;;;;;15.80;4.82;;;11.10;99.90;;;11.30;83.17;100832.31;4898559;29;20155;-69
2023/12/26 05:52:12;;;;;;;16.70;4.88;;;11.10;99.90;;;11.13;82.70;100813.03;4898313;29;20410;-69
2023/12/26 05:54:40;;;;;;;22.77;6.05;;;11.10;99.90;;;11.31;82.76;100839.38;4899438;29;20063;-69
2023/12/26 05:57:10;;;;;;;20.67;6.07;;;11.10;99.90;;;11.32;82.31;100834.94;4899698;29;20072;-69
2023/12/26 05:59:38;;;;;;;16.33;5.72;;;11.20;99.90;;;11.25;81.75;100835.88;4929942;29;20052;-68
2023/12/26 06:02:09;;;;;;;13.85;5.20;;;11.10;99.90;;;11.34;82.25;100841.97;4898198;29;20112;-69
2023/12/26 06:04:38;;;;;;;19.20;5.40;;;11.10;99.90;;;11.28;82.11;100855.28;4929913;29;20096;-69
2023/12/26 06:07:08;;;;;;;17.35;5.50;;;11.10;99.90;;;11.26;82.50;100864.13;4914079;29;20063;-69
2023/12/26 06:09:36;;;;;;;20.45;6.63;;;11.10;99.90;;;11.23;82.57;100859.72;4913882;29;20080;-68
2023/12/26 06:12:06;;;;;;;20.90;5.43;;;11.10;99.90;;;11.28;82.21;100862.34;4897853;29;20049;-69
2023/12/26 06:14:35;;;;;;;17.25;6.18;;;11.10;99.90;;;11.08;81.90;100872.19;4913904;29;20510;-69
2023/12/26 06:17:03;;;;;;;19.00;5.55;;;11.00;99.90;;;11.19;81.71;100876.50;4898897;29;20068;-70
2023/12/26 06:19:33;;;;;;;19.85;5.85;;;11.00;99.90;;;11.25;81.25;100879.13;4913564;29;20112;-68
2023/12/26 06:22:02;;;;;;;16.75;5.93;;;11.10;99.90;;;11.23;80.79;100872.97;4913113;29;20072;-69
2023/12/26 06:24:30;;;;;;;22.17;5.90;;;11.10;99.90;;;11.17;80.93;100875.63;4913509;29;20052;-68
2023/12/26 06:26:59;;;;;;;20.27;6.85;;;11.00;99.90;;;11.11;81.11;100880.13;4913504;29;20388;-69
2023/12/26 06:29:27;;;;;;;17.08;5.88;;;11.00;99.90;;;11.07;81.52;100879.22;4897776;29;20044;-68
2023/12/26 06:31:56;;;;;;;20.50;5.85;;;10.90;99.90;;;11.14;81.55;100878.31;4898908;29;20045;-69
2023/12/26 06:34:24;;;;;;;17.08;5.72;;;10.90;99.90;;;11.09;81.96;100887.19;4913048;29;20060;-69
2023/12/26 06:36:54;;;;;;;21.98;5.97;;;11.00;99.90;;;11.03;81.66;100893.41;4928956;29;20083;-69
2023/12/26 06:39:23;;;;;;;16.08;5.90;;;10.90;99.90;;;11.06;81.81;100906.59;4913099;29;20068;-69
2023/12/26 06:41:52;;;;;;;15.38;5.72;;;10.90;99.90;;;10.99;81.72;100907.53;4913240;29;20041;-69
2023/12/26 06:44:21;;;;;;;20.52;5.75;;;10.90;99.90;;;11.03;82.30;100911.94;4913201;29;20059;-69
2023/12/26 06:46:49;;;;;;;19.75;5.03;;;10.90;99.90;;;11.07;82.61;100926.03;4897110;29;20100;-70
2023/12/26 06:49:18;;;;;;;19.42;5.22;;;10.90;99.90;;;11.07;83.56;100929.53;4898695;29;20056;-69
2023/12/26 06:51:49;;;;;;;14.85;5.25;;;10.90;99.90;;;11.12;83.33;100925.09;4897625;29;20057;-68
2023/12/26 06:54:21;;;;;;;19.88;5.40;;;11.00;99.90;;;11.27;83.19;100932.94;4912936;29;20052;-69
2023/12/26 06:56:50;;;;;;;;;;;11.10;99.90;;;11.28;83.52;100932.06;4897661;29;20083;-68
2023/12/26 06:59:20;;;;;;;19.20;5.35;;;11.10;99.90;;;10.67;83.56;100820.41;4897054;29;19923;-69
2023/12/26 07:01:48;;;;;;;16.60;5.38;;;11.20;99.90;;;11.50;84.01;100952.22;4928703;29;20063;-69
2023/12/26 07:04:17;;;;;;;13.68;4.95;;;11.30;99.90;;;11.54;84.02;100943.34;4912906;29;20052;-69
2023/12/26 07:06:45;;;;;;;18.98;5.72;;;11.40;99.90;;;11.56;84.54;100953.94;4898318;29;20045;-69
2023/12/26 07:09:14;;;;;;;22.05;6.03;;;11.40;99.90;;;11.59;85.54;100938.88;4898067;29;20545;-69
2023/12/26 07:11:44;;;;;;;17.98;5.43;;;11.50;99.90;;;11.71;86.34;100954.72;4898090;29;20044;-70
2023/12/26 07:14:12;;;;;;;21.30;6.30;;;11.50;99.90;;;11.72;86.64;100961.81;4898014;29;20469;-69
2023/12/26 07:16:41;;;;;;;16.70;5.97;;;11.60;99.90;;;11.72;86.92;100943.25;4897968;29;20124;-68
2023/12/26 07:19:09;;;;;;;20.25;5.60;;;11.50;99.90;;;11.61;87.56;100958.31;4898711;29;20057;-69
2023/12/26 07:21:38;;;;;;;18.65;6.13;;;11.50;99.90;;;11.61;87.60;100957.44;4897975;29;20147;-70
2023/12/26 07:24:07;;;;;;;18.75;5.93;;;11.40;99.90;;;11.62;87.11;100977.75;4898110;29;20491;-69
2023/12/26 07:26:36;;;;;;;18.58;6.25;;;11.40;99.90;;;11.53;86.17;100976.03;4897737;29;20413;-69
2023/12/26 07:29:05;;;;;;;15.35;5.53;;;11.40;99.90;;;11.56;85.62;100970.72;4897843;29;20045;-69
2023/12/26 07:31:34;;;;;;;22.33;6.18;;;11.40;99.90;;;11.45;85.62;100980.50;4897960;29;20052;-69
2023/12/26 07:34:08;;;;;;;21.73;5.90;;;11.30;99.90;;;11.52;85.70;100987.50;4897113;29;20056;-69
2023/12/26 07:36:37;;;;;;;23.65;6.38;;;11.30;99.90;;;11.56;85.70;100986.59;4897795;29;20132;-69
2023/12/26 07:39:06;;;;;;;20.65;5.80;;;11.30;99.90;;;11.51;85.29;101004.31;4897825;29;20048;-69
2023/12/26 07:41:34;;;;;;;18.10;6.20;;;11.30;99.90;;;11.46;85.21;100990.19;4897977;29;20052;-69
2023/12/26 07:44:03;;;;;;;25.73;5.95;;;11.40;99.90;;;11.60;84.94;101006.91;4897775;29;20045;-69
2023/12/26 07:46:32;;;;;;;23.48;5.90;;;11.40;99.90;;;11.58;84.64;101006.03;4897631;29;20573;-69
2023/12/26 07:49:01;;;;;;;21.73;6.57;;;11.40;99.90;;;11.57;84.29;101017.53;4897880;29;20053;-69
2023/12/26 07:51:30;;;;;;;24.83;6.63;;;11.30;99.90;;;11.55;84.39;101027.25;4897526;29;20056;-69
2023/12/26 07:53:59;;;;;;;21.15;6.88;;;11.30;99.90;;;11.58;84.05;101021.91;4897972;29;20045;-68
2023/12/26 07:56:28;;;;;;;20.57;5.93;;;11.30;99.90;;;11.52;84.21;101023.72;4928126;29;20056;-69
2023/12/26 07:58:56;;;;;;;26.20;6.55;;;11.30;99.90;;;11.59;83.93;101028.09;4897569;29;20136;-69
2023/12/26 08:01:26;;;;;;;23.88;6.32;;;11.40;99.90;;;11.46;83.57;101035.22;4897490;29;20455;-68
2023/12/26 08:03:56;;;;;;;19.42;5.45;;;11.30;99.90;;;11.45;83.75;101041.44;4897464;29;20052;-69
2023/12/26 08:06:25;;;;;;;19.92;6.18;;;11.30;99.90;;;11.36;84.44;101052.03;4897597;29;20053;-69
2023/12/26 08:08:53;;;;;;;22.42;7.07;;;11.20;99.90;;;11.24;84.57;101043.28;4897624;29;20487;-69
2023/12/26 08:11:24;;;;;;;20.63;6.45;;;11.10;99.90;;;11.37;84.11;101064.41;4897580;29;20048;-69
2023/12/26 08:13:53;;;;;;;;;;;11.20;99.90;;;11.34;83.64;101075.00;4898093;29;20053;-68
2023/12/26 08:16:21;;;;;;;24.60;6.00;;;11.20;99.90;;;11.29;83.57;101052.97;4897279;29;19927;-70
2023/12/26 08:18:50;;;;;;;22.90;6.10;;;11.10;99.90;;;11.25;83.68;101074.16;4897311;29;20466;-69
2023/12/26 08:21:20;;;;;;;20.85;6.75;;;11.10;99.90;;;11.27;83.84;101075.94;4896216;29;20052;-69
2023/12/26 08:23:48;;;;;;;24.97;6.67;;;11.10;99.90;;;11.27;83.90;101083.88;4897261;29;20064;-69
2023/12/26 08:26:17;;;;;;;22.17;6.18;;;11.10;99.90;;;11.28;83.74;101088.31;4897281;29;20376;-69
2023/12/26 08:28:45;;;;;;;27.77;6.47;;;11.10;99.90;;;11.38;84.29;101089.13;4897441;29;20045;-69
2023/12/26 08:31:15;;;;;;;22.45;6.72;;;11.20;99.90;;;11.41;84.13;101102.34;4897157;29;20068;-69
2023/12/26 08:33:44;;;;;;;20.70;6.25;;;11.20;99.90;;;11.48;83.45;101099.66;4897468;29;20412;-69
2023/12/26 08:36:13;;;;;;;25.20;6.88;;;11.30;99.90;;;11.65;83.08;101092.56;4897190;29;20048;-69
2023/12/26 08:38:43;;;;;;;21.70;6.40;;;11.50;99.90;;;11.92;82.44;101099.50;4897052;29;20051;-69
2023/12/26 08:41:13;;;;;;;24.00;6.75;;;11.70;99.90;;;12.24;80.90;101121.34;4897498;29;20075;-69
2023/12/26 08:43:41;;;;;;;26.30;6.47;;;12.00;99.90;;;12.43;80.29;101122.97;4897130;29;20048;-68
2023/12/26 08:46:10;;;;;;;21.08;6.88;;;12.20;99.90;;;12.67;78.97;101137.81;4898743;29;20055;-69
2023/12/26 08:48:38;;;;;;;26.20;7.47;;;12.40;99.90;;;12.83;77.95;101128.84;4900595;29;20606;-71
2023/12/26 08:51:07;;;;;;;24.77;6.40;;;12.60;99.90;;;12.92;77.05;101142.00;4915084;29;20510;-69
2023/12/26 08:53:35;;;;;;;25.70;6.75;;;12.70;99.90;;;12.78;76.95;101143.91;4900854;29;20060;-69
2023/12/26 08:56:06;;;;;;;20.35;5.63;;;12.70;99.90;;;12.80;77.13;101143.88;4914806;29;20053;-69
2023/12/26 08:58:35;;;;;;;23.40;6.95;;;12.60;99.90;;;12.66;77.35;101152.84;4900528;29;20181;-69
2023/12/26 09:01:03;;;;;;;25.10;6.53;;;12.50;99.90;;;12.51;77.87;101158.28;4900528;29;20479;-69
2023/12/26 09:03:32;;;;;;;20.30;5.70;;;12.40;99.90;;;12.38;78.22;101159.28;4900640;29;20487;-68
2023/12/26 09:06:00;;;;;;;20.95;6.05;;;12.20;99.90;;;12.29;78.28;101166.41;4900428;29;20071;-69
2023/12/26 09:08:29;;;;;;;20.98;6.22;;;12.10;99.90;;;12.14;78.26;101175.34;4900155;29;20109;-69
2023/12/26 09:10:57;;;;;;;27.95;6.40;;;11.90;99.90;;;12.21;78.69;101187.69;4900204;29;20502;-69
2023/12/26 09:13:27;;;;;;;22.60;6.32;;;12.00;99.90;;;12.42;78.51;101178.69;4900243;29;20048;-69
2023/12/26 09:15:56;;;;;;;22.83;6.27;;;12.10;99.90;;;12.75;77.85;101183.75;4900454;29;20056;-69
2023/12/26 09:18:24;;;;;;;23.25;5.57;;;12.50;99.90;;;12.99;76.21;101195.94;4900004;29;20285;-69
2023/12/26 09:20:53;;;;;;;21.08;6.38;;;12.70;99.90;;;13.23;75.75;101204.59;4900026;29;20048;-69
2023/12/26 09:23:21;;;;;;;21.20;6.28;;;13.00;99.90;;;13.47;74.76;101199.00;4899952;29;20143;-69
2023/12/26 09:25:50;;;;;;;24.15;6.22;;;13.30;99.90;;;13.68;73.70;101197.91;4900039;29;20059;-69
2023/12/26 09:28:18;;;;;;;22.20;6.57;;;13.40;99.90;;;13.83;72.91;101207.47;4899768;29;20048;-68
2023/12/26 09:30:48;;;;;;;22.05;6.35;;;13.60;99.90;;;13.76;71.41;101216.41;4899887;29;20044;-69
2023/12/26 09:33:17;;;;;;;16.13;6.03;;;13.60;99.90;;;14.08;71.77;101220.44;4900424;29;20037;-69
2023/12/26 09:35:46;;;;;;;16.90;5.90;;;13.80;99.90;;;14.28;70.58;101228.19;4899625;29;20295;-69
2023/12/26 09:38:14;;;;;;;24.58;6.05;;;14.10;99.90;;;14.40;69.98;101233.34;4899710;29;20123;-68
2023/12/26 09:40:43;;;;;;;18.08;6.28;;;14.20;99.90;;;14.30;69.25;101221.06;4899653;29;20055;-69
2023/12/26 09:43:13;;;;;;;24.05;6.50;;;14.10;99.90;;;14.40;69.56;101233.34;4899644;29;20036;-69
2023/12/26 09:45:42;;;;;;;18.13;5.82;;;14.20;99.90;;;14.17;68.99;101238.91;4899469;29;20057;-70
2023/12/26 09:48:13;;;;;;;18.42;5.95;;;14.10;99.90;;;14.26;69.50;101251.25;4912895;29;20052;-70
2023/12/26 09:50:43;;;;;;;;;;;14.10;99.90;;;14.44;68.65;101256.31;4898664;29;20553;-70
2023/12/26 09:53:14;;;;;;;24.73;5.85;;;14.30;99.90;;;14.40;68.97;101260.81;4897636;29;19924;-71
2023/12/26 09:55:43;;;;;;;17.55;5.72;;;14.20;99.90;;;14.39;67.99;101263.50;4897555;29;20052;-70
2023/12/26 09:58:12;;;;;;;24.38;6.55;;;14.30;99.90;;;14.24;68.34;101256.59;4896650;29;20486;-70
2023/12/26 10:00:41;;;;;;;20.52;5.82;;;14.10;99.90;;;14.50;69.04;101264.22;4897363;29;20414;-70
2023/12/26 10:03:10;;;;;;;20.02;6.30;;;14.30;99.90;;;14.43;67.86;101271.44;4897227;29;20036;-70
2023/12/26 10:05:40;;;;;;;23.73;6.40;;;14.30;99.90;;;14.31;68.09;101276.91;4897413;29;20048;-69
2023/12/26 10:08:08;;;;;;;27.08;6.90;;;14.20;99.90;;;14.52;68.40;101293.50;4897510;29;20071;-71
2023/12/26 10:10:37;;;;;;;24.92;6.05;;;14.30;99.90;;;14.21;67.89;101288.53;4897354;29;20049;-70
2023/12/26 10:13:05;;;;;;;23.15;6.20;;;14.00;99.90;;;14.07;68.83;101282.50;4897335;29;20051;-69